Time;durP1;ratioP1;P1;durP2;ratioP2;P2;SDS_P1;SDS_P2;PMS_P1;PMS_P2;Temp;Humidity;BMP_temperature;BMP_pressure;BME280_temperature;BME280_humidity;BME280_pressure;Samples;Min_cycle;Max_cycle;Signal;HPM_P1;HPM_P2
2021/10/24 00:00:35;;;;;;;0.20;0.20;;;;;;;4.39;100.00;102327.50;5064476;28;20048;-84
2021/10/24 00:03:09;;;;;;;0.20;0.20;;;;;;;4.37;100.00;102317.94;5070113;28;20532;-84
2021/10/24 00:05:42;;;;;;;0.20;0.20;;;;;;;4.42;100.00;102328.97;5067451;28;20047;-84
2021/10/24 00:08:10;;;;;;;0.28;0.28;;;;;;;4.36;100.00;102325.16;5074305;28;20792;-84
2021/10/24 00:10:38;;;;;;;0.30;0.30;;;;;;;4.38;100.00;102325.81;5070357;28;20048;-84
2021/10/24 00:13:08;;;;;;;0.20;0.20;;;;;;;4.40;100.00;102328.31;5074325;28;20071;-84
2021/10/24 00:15:36;;;;;;;0.20;0.20;;;;;;;4.32;100.00;102313.13;5057132;28;20376;-84
2021/10/24 00:18:05;;;;;;;0.28;0.28;;;;;;;4.36;100.00;102322.47;5070532;28;20041;-85
2021/10/24 00:20:38;;;;;;;0.20;0.20;;;;;;;4.29;100.00;102321.59;5067991;28;20045;-84
2021/10/24 00:23:11;;;;;;;0.20;0.20;;;;;;;4.26;100.00;102327.41;5070893;28;20044;-84
2021/10/24 00:25:44;;;;;;;0.20;0.20;;;;;;;4.25;100.00;102326.56;5071801;28;20048;-84
2021/10/24 00:28:14;;;;;;;0.20;0.20;;;;;;;4.21;100.00;102322.59;5069199;28;20048;-84
2021/10/24 00:30:49;;;;;;;0.20;0.20;;;;;;;4.13;100.00;102316.50;5071372;28;20039;-84
2021/10/24 00:33:23;;;;;;;0.20;0.20;;;;;;;4.06;100.00;102311.06;5066405;28;20382;-84
2021/10/24 00:35:57;;;;;;;0.20;0.20;;;;;;;4.09;100.00;102314.22;5066568;28;20044;-84
2021/10/24 00:38:30;;;;;;;0.30;0.30;;;;;;;4.05;100.00;102310.25;5071701;28;20044;-84
2021/10/24 00:40:58;;;;;;;0.20;0.20;;;;;;;3.94;100.00;102297.31;5069689;28;20049;-84
2021/10/24 00:43:33;;;;;;;0.20;0.20;;;;;;;4.00;100.00;102312.69;5070611;28;20052;-84
2021/10/24 00:46:06;;;;;;;0.30;0.30;;;;;;;4.04;100.00;102319.34;5064816;28;20045;-84
2021/10/24 00:48:42;;;;;;;0.30;0.30;;;;;;;4.02;100.00;102318.72;5069981;28;20174;-85
2021/10/24 00:51:10;;;;;;;0.20;0.20;;;;;;;3.94;100.00;102301.91;5081798;28;20063;-84
2021/10/24 00:53:43;;;;;;;0.22;0.22;;;;;;;3.93;100.00;102319.91;5066178;28;20045;-84
2021/10/24 00:56:16;;;;;;;0.10;0.10;;;;;;;3.81;100.00;102303.44;5060863;28;20064;-84
2021/10/24 00:58:51;;;;;;;0.25;0.25;;;;;;;3.85;100.00;102309.25;5071687;28;20516;-84
2021/10/24 01:01:24;;;;;;;0.20;0.20;;;;;;;3.75;100.00;102302.34;5069146;28;20055;-84
2021/10/24 01:03:57;;;;;;;0.20;0.20;;;;;;;3.81;100.00;102308.84;5061077;28;20363;-84
2021/10/24 01:06:32;;;;;;;0.30;0.30;;;;;;;3.84;100.00;102307.59;5067775;28;20049;-84
2021/10/24 01:09:07;;;;;;;0.20;0.20;;;;;;;3.74;100.00;102298.00;5054936;28;20427;-84
2021/10/24 01:11:35;;;;;;;0.13;0.13;;;;;;;3.77;100.00;102310.25;5061680;28;20072;-84
2021/10/24 01:14:05;;;;;;;0.22;0.22;;;;;;;3.68;100.00;102296.06;5071429;28;20534;-84
2021/10/24 01:16:41;;;;;;;0.20;0.20;;;;;;;3.69;100.00;102296.91;5065772;28;20071;-84
2021/10/24 01:19:14;;;;;;;0.17;0.17;;;;;;;3.70;100.00;102291.34;5069537;28;20056;-84
2021/10/24 01:21:44;;;;;;;0.20;0.20;;;;;;;3.72;100.00;102293.84;5085201;28;20048;-84
2021/10/24 01:24:17;;;;;;;0.10;0.10;;;;;;;3.74;100.00;102289.94;5069351;28;20528;-84
2021/10/24 01:26:46;;;;;;;0.15;0.15;;;;;;;3.75;100.00;102280.78;5071529;28;20052;-83
2021/10/24 01:29:14;;;;;;;0.20;0.20;;;;;;;3.82;100.00;102293.50;5074900;28;20071;-84
2021/10/24 01:31:48;;;;;;;0.20;0.20;;;;;;;3.79;100.00;102280.44;5065980;28;20397;-84
2021/10/24 01:34:16;;;;;;;0.20;0.20;;;;;;;3.78;100.00;102295.75;5073397;28;20489;-84
2021/10/24 01:36:51;;;;;;;0.20;0.20;;;;;;;3.77;100.00;102280.63;5066023;28;20048;-84
2021/10/24 01:39:25;;;;;;;0.20;0.20;;;;;;;3.79;100.00;102291.19;5073041;28;20397;-84
2021/10/24 01:41:58;;;;;;;0.20;0.20;;;;;;;3.77;100.00;102288.72;5072502;28;20086;-84
2021/10/24 01:44:31;;;;;;;0.20;0.20;;;;;;;3.73;100.00;102288.25;5068953;28;20844;-84
2021/10/24 01:47:05;;;;;;;0.20;0.20;;;;;;;3.65;100.00;102274.94;5070459;28;20049;-84
2021/10/24 01:49:39;;;;;;;0.30;0.30;;;;;;;3.69;100.00;102288.84;5068893;28;20052;-84
2021/10/24 01:52:15;;;;;;;0.20;0.20;;;;;;;3.70;100.00;102285.97;5062688;28;20059;-84
2021/10/24 01:54:48;;;;;;;0.17;0.17;;;;;;;3.69;100.00;102283.47;5070904;28;20055;-84
2021/10/24 01:57:22;;;;;;;0.13;0.13;;;;;;;3.71;100.00;102284.09;5073071;28;20104;-84
2021/10/24 01:59:51;;;;;;;0.20;0.20;;;;;;;3.76;100.00;102287.03;5068287;28;20041;-84
2021/10/24 02:02:44;;;;;;;0.20;0.20;;;;;;;3.68;100.00;102281.78;5076348;28;20063;-84
2021/10/24 02:05:23;;;;;;;0.30;0.30;;;;;;;3.67;100.00;102280.94;5069618;28;20048;-84
2021/10/24 02:07:53;;;;;;;0.20;0.20;;;;;;;3.73;100.00;102290.94;5073849;28;20056;-84
2021/10/24 02:10:28;;;;;;;0.20;0.20;;;;;;;3.69;100.00;102286.97;5072253;28;20435;-83
2021/10/24 02:13:01;;;;;;;0.30;0.30;;;;;;;3.64;100.00;102284.03;5071201;28;20048;-84
2021/10/24 02:15:35;;;;;;;0.30;0.30;;;;;;;3.65;100.00;102283.00;5086064;28;20063;-84
2021/10/24 02:18:04;;;;;;;0.20;0.20;;;;;;;3.65;100.00;102282.19;5065677;28;20044;-84
2021/10/24 02:20:42;;;;;;;0.25;0.25;;;;;;;3.42;100.00;102255.47;5062764;28;20488;-84
2021/10/24 02:23:16;;;;;;;0.30;0.30;;;;;;;3.57;100.00;102289.34;5072368;28;20064;-84
2021/10/24 02:25:44;;;;;;;0.30;0.30;;;;;;;3.57;100.00;102285.81;5072242;28;20404;-84
2021/10/24 02:28:20;;;;;;;0.20;0.20;;;;;;;3.60;100.00;102274.66;5068483;28;20053;-84
2021/10/24 02:30:53;;;;;;;0.30;0.30;;;;;;;3.62;100.00;102282.53;5070898;28;20036;-84
2021/10/24 02:33:44;;;;;;;0.22;0.22;;;;;;;3.57;100.00;102283.97;5076195;28;20055;-83
2021/10/24 02:36:26;;;;;;;0.20;0.20;;;;;;;3.50;100.00;102280.38;5065937;28;20412;-84
2021/10/24 02:39:05;;;;;;;0.20;0.20;;;;;;;3.51;100.00;102275.84;5071396;28;20492;-82
2021/10/24 02:41:40;;;;;;;0.20;0.20;;;;;;;3.53;100.00;102280.00;5065838;28;20437;-82
2021/10/24 02:44:13;;;;;;;0.20;0.20;;;;;;;3.50;100.00;102274.19;5067174;28;20052;-83
2021/10/24 02:46:53;;;;;;;0.20;0.20;;;;;;;3.51;100.00;102275.84;5075881;28;20052;-83
2021/10/24 02:49:27;;;;;;;0.20;0.20;;;;;;;3.45;100.00;102263.97;5067891;28;20048;-83
2021/10/24 02:51:57;;;;;;;0.20;0.20;;;;;;;3.53;100.00;102274.59;5081416;28;20045;-83
2021/10/24 02:54:29;;;;;;;0.20;0.20;;;;;;;3.55;100.00;102274.44;5087661;28;20064;-83
2021/10/24 02:57:05;;;;;;;0.20;0.20;;;;;;;3.57;100.00;102277.75;5068268;28;20060;-83
2021/10/24 02:59:33;;;;;;;0.22;0.22;;;;;;;3.60;100.00;102277.34;5071790;28;20047;-84
2021/10/24 03:02:11;;;;;;;0.20;0.20;;;;;;;3.64;100.00;102278.63;5068554;28;20047;-83
2021/10/24 03:04:39;;;;;;;0.20;0.20;;;;;;;3.72;100.00;102283.06;5063536;28;20057;-83
2021/10/24 03:07:19;;;;;;;0.20;0.20;;;;;;;3.79;100.00;102278.56;5082747;28;20045;-83
2021/10/24 03:09:54;;;;;;;0.20;0.20;;;;;;;3.81;100.00;102281.06;5066900;28;20057;-83
2021/10/24 03:12:27;;;;;;;0.20;0.20;;;;;;;3.87;100.00;102283.81;5072456;28;20060;-84
2021/10/24 03:15:02;;;;;;;0.20;0.20;;;;;;;3.83;100.00;102274.44;5065204;28;20044;-84
2021/10/24 03:17:35;;;;;;;0.20;0.20;;;;;;;3.91;100.00;102276.19;5063738;28;20056;-83
2021/10/24 03:20:10;;;;;;;0.28;0.28;;;;;;;3.91;100.00;102270.78;5071568;28;20041;-83
2021/10/24 03:22:43;;;;;;;0.20;0.20;;;;;;;3.94;100.00;102277.66;5074654;28;20043;-84
2021/10/24 03:25:18;;;;;;;0.17;0.17;;;;;;;3.95;100.00;102282.84;5075903;28;20047;-85
2021/10/24 03:27:51;;;;;;;0.20;0.20;;;;;;;3.99;100.00;102281.41;5069762;28;20489;-83
2021/10/24 03:30:21;;;;;;;0.20;0.20;;;;;;;3.97;100.00;102272.69;5063797;28;20052;-84
2021/10/24 03:32:54;;;;;;;0.30;0.30;;;;;;;3.95;100.00;102265.81;5072240;28;20071;-84
2021/10/24 03:35:28;;;;;;;0.20;0.20;;;;;;;3.92;100.00;102272.44;5088633;28;20048;-84
2021/10/24 03:38:01;;;;;;;0.22;0.22;;;;;;;3.99;100.00;102281.41;5071189;28;20393;-84
2021/10/24 03:40:36;;;;;;;0.30;0.30;;;;;;;3.98;100.00;102268.97;5072207;28;20056;-83
2021/10/24 03:43:09;;;;;;;0.20;0.20;;;;;;;3.99;100.00;102267.09;5065060;28;20052;-83
2021/10/24 03:45:38;;;;;;;0.20;0.20;;;;;;;3.85;100.00;102264.31;5081251;28;20052;-84
2021/10/24 03:48:08;;;;;;;0.20;0.20;;;;;;;3.92;100.00;102278.66;5068487;28;20049;-84
2021/10/24 03:50:46;;;;;;;0.20;0.20;;;;;;;3.91;100.00;102274.31;5070178;28;20052;-84
2021/10/24 03:53:15;;;;;;;0.30;0.30;;;;;;;3.89;100.00;102279.06;5068800;28;20045;-83
2021/10/24 03:55:50;;;;;;;0.30;0.30;;;;;;;3.90;100.00;102272.63;5071586;28;20051;-86
2021/10/24 03:58:23;;;;;;;0.20;0.20;;;;;;;3.89;100.00;102273.69;5070324;28;20064;-85
2021/10/24 04:00:58;;;;;;;0.20;0.20;;;;;;;3.88;100.00;102274.69;5079961;28;20055;-85
2021/10/24 04:03:31;;;;;;;0.13;0.13;;;;;;;3.92;100.00;102275.13;5082784;28;20071;-84
2021/10/24 04:06:04;;;;;;;0.20;0.20;;;;;;;3.83;100.00;102277.13;5069798;28;20496;-84
2021/10/24 04:08:37;;;;;;;0.22;0.22;;;;;;;3.84;100.00;102270.72;5070637;28;20044;-83
2021/10/24 04:11:07;;;;;;;0.20;0.20;;;;;;;3.77;100.00;102271.69;5069796;28;20056;-84
2021/10/24 04:13:36;;;;;;;0.20;0.20;;;;;;;3.76;100.00;102276.25;5071591;28;20052;-84
2021/10/24 04:16:14;;;;;;;0.20;0.20;;;;;;;3.75;100.00;102279.97;5065906;28;20052;-84
2021/10/24 04:19:19;;;;;;;0.30;0.30;;;;;;;3.69;100.00;102262.75;5061951;28;20051;-84
2021/10/24 04:21:56;;;;;;;0.20;0.20;;;;;;;3.70;100.00;102277.03;5068978;28;20127;-84
2021/10/24 04:24:25;;;;;;;0.20;0.20;;;;;;;3.70;100.00;102268.94;5061214;28;20052;-84
2021/10/24 04:27:00;;;;;;;0.20;0.20;;;;;;;3.66;100.00;102265.84;5066845;28;20060;-83
2021/10/24 04:29:33;;;;;;;0.20;0.20;;;;;;;3.58;100.00;102263.28;5082460;28;20057;-84
2021/10/24 04:32:02;;;;;;;0.30;0.30;;;;;;;3.55;100.00;102264.50;5063414;28;20052;-83
2021/10/24 04:34:37;;;;;;;0.25;0.25;;;;;;;3.48;100.00;102270.81;5063977;28;20045;-84
2021/10/24 04:37:10;;;;;;;0.28;0.28;;;;;;;3.29;100.00;102242.72;5084792;28;20409;-83
2021/10/24 04:39:44;;;;;;;0.20;0.20;;;;;;;3.38;100.00;102276.53;5070450;28;20067;-84
2021/10/24 04:42:20;;;;;;;0.20;0.20;;;;;;;3.32;100.00;102267.38;5067183;28;20505;-83
2021/10/24 04:44:53;;;;;;;0.20;0.20;;;;;;;3.33;100.00;102269.06;5071658;28;20053;-83
2021/10/24 04:47:26;;;;;;;0.20;0.20;;;;;;;3.32;100.00;102263.88;5069430;28;20052;-83
2021/10/24 04:49:59;;;;;;;0.20;0.20;;;;;;;3.30;100.00;102269.44;5069721;28;20056;-84
2021/10/24 04:52:33;;;;;;;0.20;0.20;;;;;;;3.21;100.00;102247.19;5081870;28;20045;-83
2021/10/24 04:55:07;;;;;;;0.30;0.30;;;;;;;3.29;100.00;102256.19;5071291;28;20369;-84
2021/10/24 04:57:37;;;;;;;0.30;0.30;;;;;;;3.23;100.00;102252.38;5069621;28;20516;-83
2021/10/24 05:00:11;;;;;;;0.15;0.15;;;;;;;3.20;100.00;102253.63;5071885;28;20036;-83
2021/10/24 05:02:41;;;;;;;0.15;0.15;;;;;;;3.22;100.00;102246.19;5072630;28;20044;-84
2021/10/24 05:05:14;;;;;;;0.20;0.20;;;;;;;3.22;100.00;102246.19;5070389;28;20067;-83
2021/10/24 05:07:47;;;;;;;0.20;0.20;;;;;;;3.15;100.00;102250.66;5063579;28;20060;-84
2021/10/24 05:10:21;;;;;;;0.20;0.20;;;;;;;3.16;100.00;102246.97;5068047;28;20047;-83
2021/10/24 05:12:56;;;;;;;0.20;0.20;;;;;;;3.15;100.00;102247.97;5070948;28;20564;-82
2021/10/24 05:15:29;;;;;;;0.20;0.20;;;;;;;3.16;100.00;102251.47;5070686;28;20044;-83
2021/10/24 05:18:05;;;;;;;0.20;0.20;;;;;;;3.14;100.00;102251.69;5065935;28;20041;-83
2021/10/24 05:20:38;;;;;;;0.20;0.20;;;;;;;3.10;100.00;102253.09;5067818;28;20052;-82
2021/10/24 05:23:07;;;;;;;0.13;0.13;;;;;;;3.05;100.00;102248.28;5070735;28;20052;-83
2021/10/24 05:25:41;;;;;;;0.30;0.30;;;;;;;3.05;100.00;102250.13;5072128;28;20037;-83
2021/10/24 05:28:16;;;;;;;0.30;0.30;;;;;;;3.11;100.00;102252.06;5072736;28;20065;-82
2021/10/24 05:30:51;;;;;;;0.20;0.20;;;;;;;3.08;100.00;102239.00;5066011;28;20992;-83
2021/10/24 05:33:25;;;;;;;0.30;0.30;;;;;;;3.08;100.00;102249.78;5069211;28;20045;-83
2021/10/24 05:36:17;;;;;;;0.30;0.30;;;;;;;3.07;100.00;102248.09;5075870;28;20490;-83
2021/10/24 05:38:45;;;;;;;0.20;0.20;;;;;;;3.01;100.00;102243.47;5071909;28;20056;-83
2021/10/24 05:41:25;;;;;;;0.20;0.20;;;;;;;2.94;100.00;102234.50;5065611;28;20056;-84
2021/10/24 05:43:56;;;;;;;0.20;0.20;;;;;;;3.06;100.00;102243.72;5074107;28;20048;-82
2021/10/24 05:46:31;;;;;;;0.20;0.20;;;;;;;2.93;100.00;102236.38;5065778;28;20056;-84
2021/10/24 05:49:11;;;;;;;0.28;0.28;;;;;;;3.02;100.00;102242.44;5067737;28;20492;-86
2021/10/24 05:51:52;;;;;;;0.20;0.20;;;;;;;2.89;100.00;102229.69;5065446;28;20122;-84
2021/10/24 05:54:27;;;;;;;0.20;0.20;;;;;;;2.97;100.00;102232.28;5068050;28;20048;-84
2021/10/24 05:57:00;;;;;;;0.22;0.22;;;;;;;2.93;100.00;102231.00;5071086;28;20044;-84
2021/10/24 05:59:50;;;;;;;0.20;0.20;;;;;;;2.94;100.00;102229.13;5067190;28;20052;-84
2021/10/24 06:02:24;;;;;;;0.20;0.20;;;;;;;2.99;100.00;102240.16;5068975;28;20049;-84
2021/10/24 06:05:25;;;;;;;0.20;0.20;;;;;;;2.99;100.00;102242.84;5053068;28;20396;-84
2021/10/24 06:07:54;;;;;;;0.20;0.20;;;;;;;2.89;100.00;102213.56;5085495;28;20480;-83
2021/10/24 06:10:31;;;;;;;0.20;0.20;;;;;;;2.99;100.00;102240.16;5067965;28;20051;-84
2021/10/24 06:13:00;;;;;;;0.20;0.20;;;;;;;2.99;100.00;102242.84;5066031;28;20045;-86
2021/10/24 06:15:39;;;;;;;0.30;0.30;;;;;;;2.99;100.00;102242.84;5068507;28;20041;-84
2021/10/24 06:18:13;;;;;;;0.20;0.20;;;;;;;2.91;100.00;102226.81;5064851;28;20043;-84
2021/10/24 06:20:41;;;;;;;0.30;0.30;;;;;;;2.98;100.00;102244.66;5084181;28;20060;-84
2021/10/24 06:23:10;;;;;;;0.20;0.20;;;;;;;2.95;100.00;102234.31;5066103;28;20048;-84
2021/10/24 06:25:54;;;;;;;0.20;0.20;;;;;;;3.00;100.00;102239.94;5064613;28;20048;-82
2021/10/24 06:28:28;;;;;;;0.10;0.10;;;;;;;2.97;100.00;102234.09;5066476;28;20510;-83
2021/10/24 06:31:03;;;;;;;0.20;0.20;;;;;;;2.96;100.00;102240.53;5069230;28;20044;-85
2021/10/24 06:33:55;;;;;;;0.30;0.30;;;;;;;2.89;100.00;102219.75;5077477;28;20052;-84
2021/10/24 06:36:48;;;;;;;0.20;0.20;;;;;;;2.95;100.00;102236.16;5075994;28;20067;-83
2021/10/24 06:39:33;;;;;;;0.20;0.20;;;;;;;2.98;100.00;102244.66;5090677;28;20057;-84
2021/10/24 06:42:01;;;;;;;0.25;0.25;;;;;;;3.00;100.00;102231.06;5069145;28;20482;-84
2021/10/24 06:44:54;;;;;;;0.20;0.20;;;;;;;3.05;100.00;102244.75;5073630;28;20365;-84
2021/10/24 06:47:49;;;;;;;0.20;0.20;;;;;;;3.02;100.00;102243.28;5073687;28;20059;-83
2021/10/24 06:50:51;;;;;;;0.20;0.20;;;;;;;3.04;100.00;102243.94;5065825;28;20068;-84
2021/10/24 06:53:38;;;;;;;0.20;0.20;;;;;;;3.07;100.00;102240.03;5070603;28;20068;-84
2021/10/24 06:56:30;;;;;;;0.20;0.20;;;;;;;3.10;100.00;102242.31;5080513;28;20333;-83
2021/10/24 06:59:33;;;;;;;0.20;0.20;;;;;;;3.21;100.00;102247.19;5012215;28;20054;-84
2021/10/24 07:02:25;;;;;;;0.30;0.30;;;;;;;3.10;100.00;102230.75;5070016;28;20503;-85
2021/10/24 07:05:19;;;;;;;0.20;0.20;;;;;;;3.15;100.00;102241.75;5062929;28;20051;-84
2021/10/24 07:08:01;;;;;;;0.20;0.20;;;;;;;3.14;100.00;102243.59;5089280;28;20048;-84
2021/10/24 07:10:41;;;;;;;0.20;0.20;;;;;;;3.16;100.00;102241.56;5068562;28;20215;-83
2021/10/24 07:13:09;;;;;;;0.20;0.20;;;;;;;3.06;100.00;102220.34;5063948;28;20049;-83
2021/10/24 07:15:51;;;;;;;0.20;0.20;;;;;;;3.13;100.00;102222.28;5069821;28;20385;-82
2021/10/24 07:18:19;;;;;;;0.20;0.20;;;;;;;3.26;100.00;102240.41;5066570;28;20048;-81
2021/10/24 07:20:54;;;;;;;0.25;0.25;;;;;;;3.25;100.00;102236.06;5067064;28;20047;-82
2021/10/24 07:23:27;;;;;;;0.20;0.20;;;;;;;3.31;100.00;102246.03;5073913;28;20049;-82
2021/10/24 07:26:18;;;;;;;0.28;0.28;;;;;;;3.29;100.00;102240.03;5073301;28;20053;-83
2021/10/24 07:28:52;;;;;;;0.20;0.20;;;;;;;3.31;100.00;102230.72;5091510;28;20060;-83
2021/10/24 07:31:20;;;;;;;0.20;0.20;;;;;;;3.27;100.00;102225.94;5068725;28;20041;-83
2021/10/24 07:34:12;;;;;;;0.20;0.20;;;;;;;3.43;100.00;102249.06;5078721;28;20048;-82
2021/10/24 07:36:45;;;;;;;0.20;0.20;;;;;;;3.42;100.00;102247.41;5088530;28;20056;-83
2021/10/24 07:39:19;;;;;;;0.20;0.20;;;;;;;3.47;100.00;102253.84;5088807;28;20048;-82
2021/10/24 07:41:48;;;;;;;0.20;0.20;;;;;;;3.45;100.00;102236.22;5065953;28;20052;-83
2021/10/24 07:44:23;;;;;;;0.20;0.20;;;;;;;3.56;100.00;102241.94;5065241;28;20436;-82
2021/10/24 07:46:57;;;;;;;0.20;0.20;;;;;;;3.58;100.00;102247.13;5069326;28;21062;-82
2021/10/24 07:49:31;;;;;;;0.20;0.20;;;;;;;3.64;100.00;102243.63;5065260;28;20057;-82
2021/10/24 07:52:06;;;;;;;0.20;0.20;;;;;;;3.69;100.00;102248.47;5067243;28;20040;-83
2021/10/24 07:54:39;;;;;;;0.20;0.20;;;;;;;3.77;100.00;102242.06;5066992;28;20369;-82
2021/10/24 07:57:13;;;;;;;0.20;0.20;;;;;;;3.78;100.00;102255.34;5071863;28;20797;-83
2021/10/24 07:59:49;;;;;;;0.20;0.20;;;;;;;3.82;100.00;102248.53;5069751;28;20049;-83
2021/10/24 08:02:23;;;;;;;0.20;0.20;;;;;;;3.91;100.00;102238.47;5067391;28;20047;-83
2021/10/24 08:04:56;;;;;;;0.20;0.20;;;;;;;4.00;100.00;102245.34;5085806;28;20048;-82
2021/10/24 08:07:30;;;;;;;0.30;0.30;;;;;;;4.04;100.00;102243.09;5069344;28;20358;-83
2021/10/24 08:10:08;;;;;;;0.30;0.30;;;;;;;4.09;100.00;102241.47;5065087;28;20053;-84
2021/10/24 08:12:43;;;;;;;0.20;0.20;;;;;;;4.20;100.00;102236.56;5065896;28;20045;-83
2021/10/24 08:15:14;;;;;;;0.20;0.20;;;;;;;4.19;100.00;102235.72;5069454;28;20041;-83
2021/10/24 08:17:49;;;;;;;0.20;0.20;;;;;;;4.26;100.00;102228.50;5078098;28;20408;-83
2021/10/24 08:20:56;;;;;;;0.20;0.20;;;;;;;4.48;100.00;102233.81;5068953;28;20048;-83
2021/10/24 08:23:35;;;;;;;0.20;0.20;;;;;;;4.53;100.00;102227.78;5082189;28;20044;-82
2021/10/24 08:26:09;;;;;;;0.20;0.20;;;;;;;4.42;100.00;102227.34;5065513;28;20068;-83
2021/10/24 08:28:44;;;;;;;0.20;0.20;;;;;;;4.47;100.00;102226.75;5064395;28;20064;-83
2021/10/24 08:31:24;;;;;;;0.25;0.25;;;;;;;4.48;100.00;102225.72;5072746;28;20067;-84
2021/10/24 08:33:53;;;;;;;0.20;0.20;;;;;;;4.60;100.00;102224.09;5071284;28;20057;-83
2021/10/24 08:36:28;;;;;;;0.20;0.20;;;;;;;4.62;100.00;102217.69;5087869;28;20044;-82
2021/10/24 08:39:03;;;;;;;0.20;0.20;;;;;;;4.63;100.00;102209.38;5074089;28;20040;-82
2021/10/24 08:41:38;;;;;;;0.25;0.25;;;;;;;4.67;100.00;102207.94;5074406;28;20033;-81
2021/10/24 08:44:12;;;;;;;0.28;0.28;;;;;;;4.74;100.00;102205.28;5089595;28;20044;-81
2021/10/24 08:46:46;;;;;;;0.30;0.30;;;;;;;4.86;100.00;102208.19;5079493;28;20052;-83
2021/10/24 08:49:19;;;;;;;0.20;0.20;;;;;;;4.86;100.00;102195.56;5083210;28;20405;-83
2021/10/24 08:51:48;;;;;;;0.20;0.20;;;;;;;4.91;100.00;102198.44;5073337;28;20047;-82
2021/10/24 08:54:24;;;;;;;0.20;0.20;;;;;;;4.97;100.00;102194.09;5087430;28;20037;-81
2021/10/24 08:56:59;;;;;;;0.22;0.22;;;;;;;5.05;100.00;102188.50;5071066;28;20044;-82
2021/10/24 08:59:27;;;;;;;0.30;0.30;;;;;;;5.11;100.00;102184.19;5070974;28;20491;-83
2021/10/24 09:02:04;;;;;;;0.20;0.20;;;;;;;5.15;100.00;102180.03;5071686;28;20496;-80
2021/10/24 09:04:49;;;;;;;0.20;0.20;;;;;;;5.26;100.00;102182.13;5050973;28;20065;-82
2021/10/24 09:07:23;;;;;;;0.30;0.30;;;;;;;5.40;100.00;102176.69;5059865;28;20068;-80
2021/10/24 09:09:54;;;;;;;0.20;0.20;;;;;;;5.49;100.00;102180.03;5056248;28;20060;-81
2021/10/24 09:12:28;;;;;;;0.30;0.30;;;;;;;5.50;100.00;102179.81;5053678;28;20073;-82
2021/10/24 09:14:57;;;;;;;0.30;0.30;;;;;;;5.49;100.00;102167.34;5071390;28;20052;-83
2021/10/24 09:17:31;;;;;;;0.20;0.20;;;;;;;5.61;100.00;102162.97;5050219;28;20048;-83
2021/10/24 09:20:07;;;;;;;0.20;0.20;;;;;;;5.70;100.00;102160.06;5054760;28;20605;-82
2021/10/24 09:22:40;;;;;;;0.30;0.30;;;;;;;5.69;100.00;102161.09;5049497;28;20052;-81
2021/10/24 09:25:18;;;;;;;0.30;0.30;;;;;;;5.70;100.00;102154.66;5055821;28;20858;-82
2021/10/24 09:27:53;;;;;;;0.20;0.20;;;;;;;5.81;100.00;102159.41;5047384;28;20045;-82
2021/10/24 09:30:31;;;;;;;0.28;0.28;;;;;;;5.79;100.00;102153.41;5051082;28;20044;-82
2021/10/24 09:33:09;;;;;;;0.30;0.30;;;;;;;5.83;100.00;102151.94;5052992;28;20045;-82
2021/10/24 09:35:38;;;;;;;0.30;0.30;;;;;;;5.81;100.00;102148.59;5052109;28;20060;-82
2021/10/24 09:38:31;;;;;;;0.20;0.20;;;;;;;6.03;100.00;102145.66;5061996;28;20286;-83
2021/10/24 09:41:29;;;;;;;0.20;0.20;;;;;;;6.08;100.00;102148.56;5050382;28;20057;-82
2021/10/24 09:44:10;;;;;;;0.20;0.20;;;;;;;6.06;100.00;102131.72;5042196;28;20056;-81
2021/10/24 09:46:57;;;;;;;0.30;0.30;;;;;;;6.23;100.00;102140.19;5058853;28;20052;-83
2021/10/24 09:49:26;;;;;;;0.20;0.20;;;;;;;6.22;100.00;102144.75;5047984;28;20063;-83
2021/10/24 09:51:55;;;;;;;0.20;0.20;;;;;;;6.12;100.00;102126.28;5048584;28;20048;-84
2021/10/24 09:54:28;;;;;;;0.30;0.30;;;;;;;6.36;100.00;102142.00;5055263;28;20068;-82
2021/10/24 09:57:04;;;;;;;0.20;0.20;;;;;;;6.44;100.00;102130.94;5045923;28;20060;-81
2021/10/24 09:59:37;;;;;;;0.20;0.20;;;;;;;6.41;100.00;102121.38;5044516;28;20055;-81
2021/10/24 10:02:06;;;;;;;0.22;0.22;;;;;;;6.49;100.00;102128.41;5043013;28;20048;-82
2021/10/24 10:04:40;;;;;;;0.20;0.20;;;;;;;6.62;100.00;102122.91;5044217;28;20064;-82
2021/10/24 10:07:14;;;;;;;0.28;0.28;;;;;;;6.67;100.00;102129.53;5043807;28;20879;-81
2021/10/24 10:09:48;;;;;;;0.20;0.20;;;;;;;6.73;100.00;102126.81;5050422;28;20049;-81
2021/10/24 10:12:25;;;;;;;0.22;0.22;;;;;;;6.86;100.00;102125.88;5043624;28;20056;-80
2021/10/24 10:15:00;;;;;;;0.30;0.30;;;;;;;6.88;100.00;102115.66;5049014;28;20053;-82
2021/10/24 10:17:34;;;;;;;0.20;0.20;;;;;;;6.87;100.00;102129.44;5048268;28;20048;-82
2021/10/24 10:20:25;;;;;;;0.20;0.20;;;;;;;6.92;100.00;102124.19;5044663;28;20493;-82
2021/10/24 10:23:06;;;;;;;0.30;0.30;;;;;;;7.03;100.00;102123.47;5044314;28;20048;-81
2021/10/24 10:25:40;;;;;;;0.22;0.22;;;;;;;7.05;100.00;102121.34;5050508;28;20053;-82
2021/10/24 10:28:14;;;;;;;0.20;0.20;;;;;;;7.14;100.00;102111.91;5058489;28;20797;-81
2021/10/24 10:30:48;;;;;;;0.20;0.20;;;;;;;7.13;100.00;102107.56;5042669;28;20052;-82
2021/10/24 10:33:36;;;;;;;0.20;0.20;;;;;;;7.20;100.00;102098.56;5044835;28;20057;-82
2021/10/24 10:36:07;;;;;;;0.20;0.20;;;;;;;7.19;100.00;102099.59;5043818;28;20556;-82
2021/10/24 10:38:42;;;;;;;0.25;0.25;;;;;;;7.21;100.00;102087.50;5044481;28;20049;-82
2021/10/24 10:41:16;;;;;;;0.20;0.20;;;;;;;7.40;100.00;102104.63;5041224;28;20044;-82
2021/10/24 10:44:08;;;;;;;0.30;0.30;;;;;;;7.45;100.00;102101.22;5043706;28;20056;-82
2021/10/24 10:46:36;;;;;;;0.20;0.20;;;;;;;7.56;100.00;102094.25;5042943;28;20690;-81
2021/10/24 10:49:35;;;;;;;0.20;0.20;;;;;;;7.53;100.00;102089.28;5052932;28;20056;-81
2021/10/24 10:52:48;;;;;;;0.20;0.20;;;;;;;7.64;100.00;102088.53;5039758;28;20060;-81
2021/10/24 10:55:17;;;;;;;0.20;0.20;;;;;;;7.56;100.00;102069.88;4965187;28;20058;-80
2021/10/24 10:57:47;;;;;;;0.20;0.20;;;;;;;7.68;100.00;102070.78;5037826;28;20044;-80
2021/10/24 11:00:36;;;;;;;0.30;0.30;;;;;;;7.72;100.00;102068.41;5057217;28;20061;-80
2021/10/24 11:03:09;;;;;;;0.28;0.28;;;;;;;7.79;100.00;102069.19;5064815;28;20040;-80
2021/10/24 11:05:43;;;;;;;0.30;0.30;;;;;;;7.93;100.00;102061.72;5062685;28;20416;-81
2021/10/24 11:08:44;;;;;;;0.20;0.20;;;;;;;7.87;100.00;102055.34;5080180;28;20049;-80
2021/10/24 11:11:51;;;;;;;0.25;0.25;;;;;;;7.99;100.00;102045.34;5074419;28;20060;-79
2021/10/24 11:14:41;;;;;;;0.20;0.20;;;;;;;8.13;100.00;102050.59;5078793;28;20056;-79
2021/10/24 11:17:35;;;;;;;0.25;0.25;;;;;;;8.15;100.00;102046.59;5063918;28;20052;-80
2021/10/24 11:20:21;;;;;;;0.20;0.20;;;;;;;8.13;100.00;102037.88;5063670;28;20052;-80
2021/10/24 11:22:54;;;;;;;0.30;0.30;;;;;;;8.10;100.00;102023.94;5075404;28;20063;-81
2021/10/24 11:25:33;;;;;;;0.30;0.30;;;;;;;8.20;100.00;102036.94;5078272;28;20059;-81
2021/10/24 11:28:14;;;;;;;0.20;0.20;;;;;;;8.26;100.00;102027.88;5055767;28;20059;-80
2021/10/24 11:30:44;;;;;;;0.22;0.22;;;;;;;8.31;100.00;102028.88;5077261;28;20536;-80
2021/10/24 11:33:19;;;;;;;0.20;0.20;;;;;;;8.21;100.00;102028.59;5060293;28;20048;-81
2021/10/24 11:35:52;;;;;;;0.25;0.25;;;;;;;8.35;100.00;102018.34;5058617;28;20048;-80
2021/10/24 11:38:26;;;;;;;0.20;0.20;;;;;;;8.40;100.00;102013.06;5049120;28;20057;-82
2021/10/24 11:40:54;;;;;;;0.30;0.30;;;;;;;8.41;100.00;102011.19;5060106;28;20059;-79
2021/10/24 11:43:29;;;;;;;0.20;0.20;;;;;;;8.36;100.00;102019.22;5064161;28;20063;-80
2021/10/24 11:46:05;;;;;;;0.30;0.30;;;;;;;8.46;100.00;102019.47;5054273;28;20508;-80
2021/10/24 11:48:37;;;;;;;0.20;0.20;;;;;;;8.47;100.00;102019.25;5061150;28;20049;-80
2021/10/24 11:51:07;;;;;;;0.30;0.30;;;;;;;8.46;100.00;102022.19;5055605;28;20055;-80
2021/10/24 11:53:38;;;;;;;0.20;0.20;;;;;;;8.46;100.00;102016.78;5056384;28;20049;-80
2021/10/24 11:56:15;;;;;;;0.20;0.20;;;;;;;8.56;100.00;102013.47;5062709;28;20087;-80
2021/10/24 11:58:54;;;;;;;0.20;0.20;;;;;;;8.51;100.00;102006.88;5069829;28;20052;-80
2021/10/24 12:01:25;;;;;;;0.20;0.20;;;;;;;8.55;100.00;102003.69;5063526;28;20044;-81
2021/10/24 12:04:03;;;;;;;0.20;0.20;;;;;;;8.54;100.00;101988.50;5054963;28;20052;-81